sensor_id;sensor_type;location;lat;lon;timestamp;P1;durP1;ratioP1;P2;durP2;ratioP2
6791;SDS011;3433;48.730;9.108;2023-07-28T00:02:20;3.13;;;2.83;;
6791;SDS011;3433;48.730;9.108;2023-07-28T00:05:07;3.63;;;3.00;;
6791;SDS011;3433;48.730;9.108;2023-07-28T00:07:54;3.37;;;3.07;;
6791;SDS011;3433;48.730;9.108;2023-07-28T00:10:42;3.17;;;2.87;;
6791;SDS011;3433;48.730;9.108;2023-07-28T00:13:29;3.67;;;3.13;;
6791;SDS011;3433;48.730;9.108;2023-07-28T00:16:18;3.37;;;2.80;;
6791;SDS011;3433;48.730;9.108;2023-07-28T00:19:05;2.60;;;2.40;;
6791;SDS011;3433;48.730;9.108;2023-07-28T00:21:52;3.27;;;2.80;;
6791;SDS011;3433;48.730;9.108;2023-07-28T00:24:41;3.53;;;2.83;;
6791;SDS011;3433;48.730;9.108;2023-07-28T00:27:29;3.57;;;3.27;;
6791;SDS011;3433;48.730;9.108;2023-07-28T00:30:16;2.70;;;2.50;;
6791;SDS011;3433;48.730;9.108;2023-07-28T00:33:05;3.13;;;2.83;;
6791;SDS011;3433;48.730;9.108;2023-07-28T00:35:52;4.60;;;2.80;;
6791;SDS011;3433;48.730;9.108;2023-07-28T00:38:39;2.93;;;2.63;;
6791;SDS011;3433;48.730;9.108;2023-07-28T00:41:27;2.93;;;2.73;;
6791;SDS011;3433;48.730;9.108;2023-07-28T00:44:14;3.33;;;2.80;;
6791;SDS011;3433;48.730;9.108;2023-07-28T00:47:03;3.10;;;2.80;;
6791;SDS011;3433;48.730;9.108;2023-07-28T00:49:52;3.23;;;2.90;;
6791;SDS011;3433;48.730;9.108;2023-07-28T00:52:39;2.90;;;2.60;;
6791;SDS011;3433;48.730;9.108;2023-07-28T00:55:27;3.20;;;2.67;;
6791;SDS011;3433;48.730;9.108;2023-07-28T00:58:14;3.37;;;3.07;;
6791;SDS011;3433;48.730;9.108;2023-07-28T01:01:01;3.97;;;3.60;;
6791;SDS011;3433;48.730;9.108;2023-07-28T01:03:48;4.03;;;3.20;;
6791;SDS011;3433;48.730;9.108;2023-07-28T01:06:40;3.27;;;2.97;;
6791;SDS011;3433;48.730;9.108;2023-07-28T01:09:34;3.10;;;2.80;;
6791;SDS011;3433;48.730;9.108;2023-07-28T01:12:28;2.83;;;2.63;;
6791;SDS011;3433;48.730;9.108;2023-07-28T01:15:15;4.37;;;2.70;;
6791;SDS011;3433;48.730;9.108;2023-07-28T01:18:02;3.13;;;2.70;;
6791;SDS011;3433;48.730;9.108;2023-07-28T01:20:50;4.07;;;3.03;;
6791;SDS011;3433;48.730;9.108;2023-07-28T01:23:44;3.13;;;2.70;;
6791;SDS011;3433;48.730;9.108;2023-07-28T01:26:43;3.30;;;3.00;;
6791;SDS011;3433;48.730;9.108;2023-07-28T01:29:32;2.70;;;2.50;;
6791;SDS011;3433;48.730;9.108;2023-07-28T01:32:20;3.90;;;3.23;;
6791;SDS011;3433;48.730;9.108;2023-07-28T01:35:07;3.07;;;2.77;;
6791;SDS011;3433;48.730;9.108;2023-07-28T01:37:55;5.33;;;3.70;;
6791;SDS011;3433;48.730;9.108;2023-07-28T01:40:42;3.23;;;2.93;;
6791;SDS011;3433;48.730;9.108;2023-07-28T01:43:31;5.27;;;2.80;;
6791;SDS011;3433;48.730;9.108;2023-07-28T01:46:18;4.23;;;2.90;;
6791;SDS011;3433;48.730;9.108;2023-07-28T01:49:05;3.77;;;3.20;;
6791;SDS011;3433;48.730;9.108;2023-07-28T01:51:53;3.20;;;2.90;;
6791;SDS011;3433;48.730;9.108;2023-07-28T01:54:40;3.20;;;2.90;;
6791;SDS011;3433;48.730;9.108;2023-07-28T01:57:27;2.57;;;2.33;;
6791;SDS011;3433;48.730;9.108;2023-07-28T02:00:18;2.93;;;2.70;;
6791;SDS011;3433;48.730;9.108;2023-07-28T02:03:06;3.87;;;2.73;;
6791;SDS011;3433;48.730;9.108;2023-07-28T02:05:53;3.37;;;2.50;;
6791;SDS011;3433;48.730;9.108;2023-07-28T02:08:41;2.60;;;2.40;;
6791;SDS011;3433;48.730;9.108;2023-07-28T02:11:30;3.70;;;2.30;;
6791;SDS011;3433;48.730;9.108;2023-07-28T02:14:18;3.10;;;2.43;;
6791;SDS011;3433;48.730;9.108;2023-07-28T02:17:07;6.30;;;2.77;;
6791;SDS011;3433;48.730;9.108;2023-07-28T02:19:54;4.47;;;2.60;;
6791;SDS011;3433;48.730;9.108;2023-07-28T02:22:41;4.80;;;2.70;;
6791;SDS011;3433;48.730;9.108;2023-07-28T02:25:29;3.53;;;3.07;;
6791;SDS011;3433;48.730;9.108;2023-07-28T02:28:16;2.90;;;2.67;;
6791;SDS011;3433;48.730;9.108;2023-07-28T02:31:03;2.63;;;2.43;;
6791;SDS011;3433;48.730;9.108;2023-07-28T02:33:52;3.00;;;2.73;;
6791;SDS011;3433;48.730;9.108;2023-07-28T02:36:39;3.47;;;3.17;;
6791;SDS011;3433;48.730;9.108;2023-07-28T02:39:26;3.60;;;2.73;;
6791;SDS011;3433;48.730;9.108;2023-07-28T02:42:14;4.60;;;3.20;;
6791;SDS011;3433;48.730;9.108;2023-07-28T02:45:01;3.20;;;2.90;;
6791;SDS011;3433;48.730;9.108;2023-07-28T02:47:48;4.03;;;3.07;;
6791;SDS011;3433;48.730;9.108;2023-07-28T02:50:37;3.13;;;2.60;;
6791;SDS011;3433;48.730;9.108;2023-07-28T02:53:24;3.80;;;2.83;;
6791;SDS011;3433;48.730;9.108;2023-07-28T02:56:11;3.93;;;2.13;;
6791;SDS011;3433;48.730;9.108;2023-07-28T02:58:59;2.90;;;2.70;;
6791;SDS011;3433;48.730;9.108;2023-07-28T03:01:46;2.80;;;2.60;;
6791;SDS011;3433;48.730;9.108;2023-07-28T03:04:33;2.83;;;2.63;;
6791;SDS011;3433;48.730;9.108;2023-07-28T03:07:22;3.23;;;2.93;;
6791;SDS011;3433;48.730;9.108;2023-07-28T03:10:09;2.80;;;2.53;;
6791;SDS011;3433;48.730;9.108;2023-07-28T03:13:01;2.80;;;2.60;;
6791;SDS011;3433;48.730;9.108;2023-07-28T03:15:49;4.30;;;3.03;;
6791;SDS011;3433;48.730;9.108;2023-07-28T03:18:36;3.60;;;2.60;;
6791;SDS011;3433;48.730;9.108;2023-07-28T03:21:23;5.03;;;3.10;;
6791;SDS011;3433;48.730;9.108;2023-07-28T03:24:11;2.53;;;2.33;;
6791;SDS011;3433;48.730;9.108;2023-07-28T03:26:59;3.17;;;2.87;;
6791;SDS011;3433;48.730;9.108;2023-07-28T03:29:46;3.30;;;3.00;;
6791;SDS011;3433;48.730;9.108;2023-07-28T03:32:33;3.07;;;2.80;;
6791;SDS011;3433;48.730;9.108;2023-07-28T03:35:20;2.63;;;2.43;;
6791;SDS011;3433;48.730;9.108;2023-07-28T03:38:08;2.73;;;2.53;;
6791;SDS011;3433;48.730;9.108;2023-07-28T03:40:56;3.40;;;3.07;;
6791;SDS011;3433;48.730;9.108;2023-07-28T03:43:44;3.30;;;3.07;;
6791;SDS011;3433;48.730;9.108;2023-07-28T03:46:32;3.20;;;2.90;;
6791;SDS011;3433;48.730;9.108;2023-07-28T03:49:19;2.97;;;2.77;;
6791;SDS011;3433;48.730;9.108;2023-07-28T03:52:07;3.50;;;2.93;;
6791;SDS011;3433;48.730;9.108;2023-07-28T03:54:54;11.53;;;2.87;;
6791;SDS011;3433;48.730;9.108;2023-07-28T03:57:43;2.97;;;2.77;;
6791;SDS011;3433;48.730;9.108;2023-07-28T04:00:30;4.40;;;2.80;;
6791;SDS011;3433;48.730;9.108;2023-07-28T04:03:17;6.27;;;3.07;;
6791;SDS011;3433;48.730;9.108;2023-07-28T04:06:05;4.10;;;3.20;;
6791;SDS011;3433;48.730;9.108;2023-07-28T04:08:56;4.47;;;3.10;;
6791;SDS011;3433;48.730;9.108;2023-07-28T04:11:43;4.30;;;3.23;;
6791;SDS011;3433;48.730;9.108;2023-07-28T04:14:32;4.77;;;3.13;;
6791;SDS011;3433;48.730;9.108;2023-07-28T04:17:19;5.57;;;3.40;;
6791;SDS011;3433;48.730;9.108;2023-07-28T04:20:07;3.07;;;2.77;;
6791;SDS011;3433;48.730;9.108;2023-07-28T04:22:54;4.27;;;3.00;;
6791;SDS011;3433;48.730;9.108;2023-07-28T04:25:42;5.83;;;3.23;;
6791;SDS011;3433;48.730;9.108;2023-07-28T04:28:31;3.70;;;3.20;;
6791;SDS011;3433;48.730;9.108;2023-07-28T04:31:20;3.33;;;3.03;;
6791;SDS011;3433;48.730;9.108;2023-07-28T04:34:07;5.13;;;3.40;;
6791;SDS011;3433;48.730;9.108;2023-07-28T04:36:54;3.10;;;2.80;;
6791;SDS011;3433;48.730;9.108;2023-07-28T04:39:41;3.30;;;3.03;;
6791;SDS011;3433;48.730;9.108;2023-07-28T04:42:29;3.00;;;2.80;;
6791;SDS011;3433;48.730;9.108;2023-07-28T04:45:16;6.20;;;3.07;;
6791;SDS011;3433;48.730;9.108;2023-07-28T04:48:05;3.77;;;2.80;;
6791;SDS011;3433;48.730;9.108;2023-07-28T04:50:52;3.43;;;3.13;;
6791;SDS011;3433;48.730;9.108;2023-07-28T04:53:39;4.10;;;3.30;;
6791;SDS011;3433;48.730;9.108;2023-07-28T04:56:27;3.30;;;3.00;;
6791;SDS011;3433;48.730;9.108;2023-07-28T04:59:14;6.70;;;2.90;;
6791;SDS011;3433;48.730;9.108;2023-07-28T05:02:01;4.10;;;2.90;;
6791;SDS011;3433;48.730;9.108;2023-07-28T05:04:50;3.50;;;2.83;;
6791;SDS011;3433;48.730;9.108;2023-07-28T05:07:37;6.47;;;3.07;;
6791;SDS011;3433;48.730;9.108;2023-07-28T05:10:24;4.20;;;3.80;;
6791;SDS011;3433;48.730;9.108;2023-07-28T05:13:12;5.03;;;3.60;;
6791;SDS011;3433;48.730;9.108;2023-07-28T05:15:59;6.67;;;3.77;;
6791;SDS011;3433;48.730;9.108;2023-07-28T05:18:46;6.47;;;3.60;;
6791;SDS011;3433;48.730;9.108;2023-07-28T05:21:35;4.97;;;4.17;;
6791;SDS011;3433;48.730;9.108;2023-07-28T05:24:22;8.07;;;4.23;;
6791;SDS011;3433;48.730;9.108;2023-07-28T05:27:09;4.90;;;3.80;;
6791;SDS011;3433;48.730;9.108;2023-07-28T05:29:56;4.23;;;3.80;;
6791;SDS011;3433;48.730;9.108;2023-07-28T05:32:43;6.20;;;3.73;;
6791;SDS011;3433;48.730;9.108;2023-07-28T05:35:31;5.60;;;4.07;;
6791;SDS011;3433;48.730;9.108;2023-07-28T05:38:20;4.40;;;3.87;;
6791;SDS011;3433;48.730;9.108;2023-07-28T05:41:07;5.87;;;3.73;;
6791;SDS011;3433;48.730;9.108;2023-07-28T05:43:54;6.97;;;4.40;;
6791;SDS011;3433;48.730;9.108;2023-07-28T05:46:42;8.00;;;4.43;;
6791;SDS011;3433;48.730;9.108;2023-07-28T05:49:30;4.30;;;3.90;;
6791;SDS011;3433;48.730;9.108;2023-07-28T05:52:17;6.20;;;4.07;;
6791;SDS011;3433;48.730;9.108;2023-07-28T05:55:06;4.83;;;4.10;;
6791;SDS011;3433;48.730;9.108;2023-07-28T05:57:54;4.77;;;4.13;;
6791;SDS011;3433;48.730;9.108;2023-07-28T06:00:41;4.27;;;3.67;;
6791;SDS011;3433;48.730;9.108;2023-07-28T06:03:28;8.73;;;4.30;;
6791;SDS011;3433;48.730;9.108;2023-07-28T06:06:16;6.97;;;4.40;;
6791;SDS011;3433;48.730;9.108;2023-07-28T06:09:04;5.10;;;4.17;;
6791;SDS011;3433;48.730;9.108;2023-07-28T06:11:52;5.57;;;4.77;;
6791;SDS011;3433;48.730;9.108;2023-07-28T06:14:40;4.83;;;4.33;;
6791;SDS011;3433;48.730;9.108;2023-07-28T06:17:27;6.33;;;4.90;;
6791;SDS011;3433;48.730;9.108;2023-07-28T06:20:14;4.43;;;4.03;;
6791;SDS011;3433;48.730;9.108;2023-07-28T06:23:02;8.43;;;5.10;;
6791;SDS011;3433;48.730;9.108;2023-07-28T06:25:49;9.87;;;4.73;;
6791;SDS011;3433;48.730;9.108;2023-07-28T06:28:37;9.83;;;4.50;;
6791;SDS011;3433;48.730;9.108;2023-07-28T06:31:25;5.80;;;4.50;;
6791;SDS011;3433;48.730;9.108;2023-07-28T06:34:12;8.37;;;4.93;;
6791;SDS011;3433;48.730;9.108;2023-07-28T06:37:00;8.50;;;5.23;;
6791;SDS011;3433;48.730;9.108;2023-07-28T06:39:47;8.03;;;3.90;;
6791;SDS011;3433;48.730;9.108;2023-07-28T06:42:35;9.70;;;4.77;;
6791;SDS011;3433;48.730;9.108;2023-07-28T06:45:24;7.00;;;3.90;;
6791;SDS011;3433;48.730;9.108;2023-07-28T06:48:11;9.57;;;4.23;;
6791;SDS011;3433;48.730;9.108;2023-07-28T06:50:59;7.70;;;3.70;;
6791;SDS011;3433;48.730;9.108;2023-07-28T06:53:46;5.57;;;3.50;;
6791;SDS011;3433;48.730;9.108;2023-07-28T06:56:33;5.90;;;3.03;;
6791;SDS011;3433;48.730;9.108;2023-07-28T06:59:21;6.57;;;4.00;;
6791;SDS011;3433;48.730;9.108;2023-07-28T07:02:09;8.30;;;3.80;;
6791;SDS011;3433;48.730;9.108;2023-07-28T07:04:57;4.80;;;3.60;;
6791;SDS011;3433;48.730;9.108;2023-07-28T07:07:44;5.23;;;3.60;;
6791;SDS011;3433;48.730;9.108;2023-07-28T07:10:32;4.17;;;3.60;;
6791;SDS011;3433;48.730;9.108;2023-07-28T07:13:19;4.83;;;4.07;;
6791;SDS011;3433;48.730;9.108;2023-07-28T07:16:12;6.13;;;5.27;;
6791;SDS011;3433;48.730;9.108;2023-07-28T07:19:03;3.80;;;3.47;;
6791;SDS011;3433;48.730;9.108;2023-07-28T07:21:50;5.47;;;3.87;;
6791;SDS011;3433;48.730;9.108;2023-07-28T07:24:38;4.93;;;3.87;;
6791;SDS011;3433;48.730;9.108;2023-07-28T07:27:25;6.10;;;4.37;;
6791;SDS011;3433;48.730;9.108;2023-07-28T07:30:12;3.90;;;3.50;;
6791;SDS011;3433;48.730;9.108;2023-07-28T07:32:59;4.53;;;3.60;;
6791;SDS011;3433;48.730;9.108;2023-07-28T07:35:48;4.03;;;3.73;;
6791;SDS011;3433;48.730;9.108;2023-07-28T07:38:35;3.63;;;3.30;;
6791;SDS011;3433;48.730;9.108;2023-07-28T07:41:22;3.73;;;3.43;;
6791;SDS011;3433;48.730;9.108;2023-07-28T07:44:10;5.63;;;4.10;;
6791;SDS011;3433;48.730;9.108;2023-07-28T07:46:59;5.70;;;3.70;;
6791;SDS011;3433;48.730;9.108;2023-07-28T07:49:48;8.30;;;3.43;;
6791;SDS011;3433;48.730;9.108;2023-07-28T07:52:37;3.90;;;3.50;;
6791;SDS011;3433;48.730;9.108;2023-07-28T07:55:25;5.80;;;4.03;;
6791;SDS011;3433;48.730;9.108;2023-07-28T07:58:12;3.93;;;3.20;;
6791;SDS011;3433;48.730;9.108;2023-07-28T08:00:59;5.03;;;2.93;;
6791;SDS011;3433;48.730;9.108;2023-07-28T08:03:47;4.50;;;3.17;;
6791;SDS011;3433;48.730;9.108;2023-07-28T08:06:34;3.33;;;3.03;;
6791;SDS011;3433;48.730;9.108;2023-07-28T08:09:23;5.20;;;2.73;;
6791;SDS011;3433;48.730;9.108;2023-07-28T08:12:10;3.50;;;3.10;;
6791;SDS011;3433;48.730;9.108;2023-07-28T08:14:58;3.47;;;2.77;;
6791;SDS011;3433;48.730;9.108;2023-07-28T08:17:45;4.40;;;2.97;;
6791;SDS011;3433;48.730;9.108;2023-07-28T08:20:33;3.70;;;3.13;;
6791;SDS011;3433;48.730;9.108;2023-07-28T08:23:20;3.30;;;3.00;;
6791;SDS011;3433;48.730;9.108;2023-07-28T08:26:09;3.20;;;2.90;;
6791;SDS011;3433;48.730;9.108;2023-07-28T08:28:56;3.63;;;3.03;;
6791;SDS011;3433;48.730;9.108;2023-07-28T08:31:43;3.60;;;3.30;;
6791;SDS011;3433;48.730;9.108;2023-07-28T08:34:31;3.53;;;2.90;;
6791;SDS011;3433;48.730;9.108;2023-07-28T08:37:18;3.40;;;3.10;;
6791;SDS011;3433;48.730;9.108;2023-07-28T08:40:05;3.53;;;2.80;;
6791;SDS011;3433;48.730;9.108;2023-07-28T08:42:55;3.80;;;3.40;;
6791;SDS011;3433;48.730;9.108;2023-07-28T08:45:42;3.30;;;3.03;;
6791;SDS011;3433;48.730;9.108;2023-07-28T08:48:30;3.80;;;3.10;;
6791;SDS011;3433;48.730;9.108;2023-07-28T08:51:17;3.27;;;2.93;;
6791;SDS011;3433;48.730;9.108;2023-07-28T08:54:04;3.40;;;3.03;;
6791;SDS011;3433;48.730;9.108;2023-07-28T08:56:52;4.17;;;2.80;;
6791;SDS011;3433;48.730;9.108;2023-07-28T08:59:41;3.77;;;3.37;;
6791;SDS011;3433;48.730;9.108;2023-07-28T09:02:32;3.43;;;3.10;;
6791;SDS011;3433;48.730;9.108;2023-07-28T09:05:20;4.53;;;2.80;;
6791;SDS011;3433;48.730;9.108;2023-07-28T09:08:09;3.10;;;2.73;;
6791;SDS011;3433;48.730;9.108;2023-07-28T09:10:57;3.10;;;2.77;;
6791;SDS011;3433;48.730;9.108;2023-07-28T09:13:49;3.67;;;3.00;;
6791;SDS011;3433;48.730;9.108;2023-07-28T09:16:39;4.97;;;3.33;;
6791;SDS011;3433;48.730;9.108;2023-07-28T09:19:27;4.63;;;2.90;;
6791;SDS011;3433;48.730;9.108;2023-07-28T09:22:14;2.60;;;2.40;;
6791;SDS011;3433;48.730;9.108;2023-07-28T09:25:08;3.00;;;2.60;;
6791;SDS011;3433;48.730;9.108;2023-07-28T09:27:59;4.57;;;3.20;;
6791;SDS011;3433;48.730;9.108;2023-07-28T09:30:47;2.67;;;2.37;;
6791;SDS011;3433;48.730;9.108;2023-07-28T09:33:37;3.00;;;2.70;;
6791;SDS011;3433;48.730;9.108;2023-07-28T09:36:28;3.40;;;3.00;;
6791;SDS011;3433;48.730;9.108;2023-07-28T09:39:16;3.30;;;2.93;;
6791;SDS011;3433;48.730;9.108;2023-07-28T09:42:05;3.63;;;3.30;;
6791;SDS011;3433;48.730;9.108;2023-07-28T09:44:55;4.10;;;3.57;;
6791;SDS011;3433;48.730;9.108;2023-07-28T09:47:43;4.80;;;3.50;;
6791;SDS011;3433;48.730;9.108;2023-07-28T09:50:33;3.57;;;3.00;;
6791;SDS011;3433;48.730;9.108;2023-07-28T09:53:23;3.00;;;2.70;;
6791;SDS011;3433;48.730;9.108;2023-07-28T09:56:15;5.37;;;2.63;;
6791;SDS011;3433;48.730;9.108;2023-07-28T09:59:04;3.00;;;2.70;;
6791;SDS011;3433;48.730;9.108;2023-07-28T10:01:57;3.03;;;2.77;;
6791;SDS011;3433;48.730;9.108;2023-07-28T10:04:45;2.60;;;2.40;;
6791;SDS011;3433;48.730;9.108;2023-07-28T10:07:35;3.30;;;3.00;;
6791;SDS011;3433;48.730;9.108;2023-07-28T10:10:23;3.20;;;2.90;;
6791;SDS011;3433;48.730;9.108;2023-07-28T10:13:18;3.10;;;2.90;;
6791;SDS011;3433;48.730;9.108;2023-07-28T10:16:06;2.20;;;1.97;;
6791;SDS011;3433;48.730;9.108;2023-07-28T10:18:54;2.00;;;1.80;;
6791;SDS011;3433;48.730;9.108;2023-07-28T10:21:42;3.40;;;1.60;;
6791;SDS011;3433;48.730;9.108;2023-07-28T10:27:44;1.47;;;1.30;;
6791;SDS011;3433;48.730;9.108;2023-07-28T10:30:36;1.77;;;1.37;;
6791;SDS011;3433;48.730;9.108;2023-07-28T10:33:28;2.43;;;1.20;;
6791;SDS011;3433;48.730;9.108;2023-07-28T10:36:18;2.37;;;1.60;;
6791;SDS011;3433;48.730;9.108;2023-07-28T10:39:19;1.40;;;1.30;;
6791;SDS011;3433;48.730;9.108;2023-07-28T10:42:21;1.50;;;1.40;;
6791;SDS011;3433;48.730;9.108;2023-07-28T10:45:09;1.37;;;1.20;;
6791;SDS011;3433;48.730;9.108;2023-07-28T10:47:58;1.50;;;1.30;;
6791;SDS011;3433;48.730;9.108;2023-07-28T10:50:46;1.60;;;1.50;;
6791;SDS011;3433;48.730;9.108;2023-07-28T10:53:33;1.70;;;1.60;;
6791;SDS011;3433;48.730;9.108;2023-07-28T10:56:20;1.60;;;1.50;;
6791;SDS011;3433;48.730;9.108;2023-07-28T10:59:10;1.57;;;1.37;;
6791;SDS011;3433;48.730;9.108;2023-07-28T11:01:57;1.33;;;1.23;;
6791;SDS011;3433;48.730;9.108;2023-07-28T11:04:45;1.53;;;1.43;;
6791;SDS011;3433;48.730;9.108;2023-07-28T11:07:33;1.97;;;1.80;;
6791;SDS011;3433;48.730;9.108;2023-07-28T11:10:21;2.47;;;1.77;;
6791;SDS011;3433;48.730;9.108;2023-07-28T11:13:09;2.17;;;1.90;;
6791;SDS011;3433;48.730;9.108;2023-07-28T11:15:58;1.90;;;1.80;;
6791;SDS011;3433;48.730;9.108;2023-07-28T11:18:47;1.67;;;1.53;;
6791;SDS011;3433;48.730;9.108;2023-07-28T11:21:35;2.00;;;1.60;;
6791;SDS011;3433;48.730;9.108;2023-07-28T11:24:23;2.30;;;2.10;;
6791;SDS011;3433;48.730;9.108;2023-07-28T11:27:11;2.47;;;1.80;;
6791;SDS011;3433;48.730;9.108;2023-07-28T11:29:58;2.10;;;1.90;;
6791;SDS011;3433;48.730;9.108;2023-07-28T11:32:51;3.00;;;2.30;;
6791;SDS011;3433;48.730;9.108;2023-07-28T11:35:39;1.80;;;1.70;;
6791;SDS011;3433;48.730;9.108;2023-07-28T11:38:26;1.70;;;1.60;;
6791;SDS011;3433;48.730;9.108;2023-07-28T11:41:15;4.83;;;1.90;;
6791;SDS011;3433;48.730;9.108;2023-07-28T11:44:03;2.07;;;1.87;;
6791;SDS011;3433;48.730;9.108;2023-07-28T11:46:51;2.27;;;2.07;;
6791;SDS011;3433;48.730;9.108;2023-07-28T11:49:47;3.00;;;2.70;;
6791;SDS011;3433;48.730;9.108;2023-07-28T11:52:37;3.10;;;2.60;;
6791;SDS011;3433;48.730;9.108;2023-07-28T11:55:24;3.20;;;2.67;;
6791;SDS011;3433;48.730;9.108;2023-07-28T11:58:12;3.23;;;2.83;;
6791;SDS011;3433;48.730;9.108;2023-07-28T12:00:59;2.83;;;2.63;;
6791;SDS011;3433;48.730;9.108;2023-07-28T12:03:55;3.20;;;2.83;;
6791;SDS011;3433;48.730;9.108;2023-07-28T12:09:51;3.50;;;3.20;;
6791;SDS011;3433;48.730;9.108;2023-07-28T12:12:41;3.27;;;2.97;;
6791;SDS011;3433;48.730;9.108;2023-07-28T12:15:39;2.97;;;2.70;;
6791;SDS011;3433;48.730;9.108;2023-07-28T12:18:29;6.50;;;3.20;;
6791;SDS011;3433;48.730;9.108;2023-07-28T12:21:17;10.03;;;3.00;;
6791;SDS011;3433;48.730;9.108;2023-07-28T12:24:05;4.30;;;3.13;;
6791;SDS011;3433;48.730;9.108;2023-07-28T12:26:53;3.97;;;3.57;;
6791;SDS011;3433;48.730;9.108;2023-07-28T12:29:41;3.33;;;3.03;;
6791;SDS011;3433;48.730;9.108;2023-07-28T12:32:29;3.60;;;3.30;;
6791;SDS011;3433;48.730;9.108;2023-07-28T12:35:16;4.13;;;3.23;;
6791;SDS011;3433;48.730;9.108;2023-07-28T12:38:04;3.60;;;3.23;;
6791;SDS011;3433;48.730;9.108;2023-07-28T12:40:54;3.50;;;3.20;;
6791;SDS011;3433;48.730;9.108;2023-07-28T12:43:42;3.70;;;3.20;;
6791;SDS011;3433;48.730;9.108;2023-07-28T12:46:29;3.40;;;3.10;;
6791;SDS011;3433;48.730;9.108;2023-07-28T12:49:16;3.87;;;3.53;;
6791;SDS011;3433;48.730;9.108;2023-07-28T12:52:05;3.43;;;2.73;;
6791;SDS011;3433;48.730;9.108;2023-07-28T12:54:54;4.07;;;3.67;;
6791;SDS011;3433;48.730;9.108;2023-07-28T12:57:43;5.23;;;3.53;;
6791;SDS011;3433;48.730;9.108;2023-07-28T13:00:33;5.33;;;3.37;;
6791;SDS011;3433;48.730;9.108;2023-07-28T13:03:21;4.37;;;3.60;;
6791;SDS011;3433;48.730;9.108;2023-07-28T13:06:08;4.07;;;3.67;;
6791;SDS011;3433;48.730;9.108;2023-07-28T13:08:55;4.90;;;3.80;;
6791;SDS011;3433;48.730;9.108;2023-07-28T13:11:42;3.73;;;3.30;;
6791;SDS011;3433;48.730;9.108;2023-07-28T13:14:31;3.30;;;3.00;;
6791;SDS011;3433;48.730;9.108;2023-07-28T13:17:18;4.00;;;3.30;;
6791;SDS011;3433;48.730;9.108;2023-07-28T13:20:06;7.30;;;4.13;;
6791;SDS011;3433;48.730;9.108;2023-07-28T13:22:54;7.83;;;3.73;;
6791;SDS011;3433;48.730;9.108;2023-07-28T13:25:42;5.67;;;4.00;;
6791;SDS011;3433;48.730;9.108;2023-07-28T13:28:29;4.60;;;4.20;;
6791;SDS011;3433;48.730;9.108;2023-07-28T13:31:18;8.00;;;3.60;;
6791;SDS011;3433;48.730;9.108;2023-07-28T13:34:06;3.30;;;2.83;;
6791;SDS011;3433;48.730;9.108;2023-07-28T13:36:53;4.23;;;3.17;;
6791;SDS011;3433;48.730;9.108;2023-07-28T13:39:41;3.97;;;3.57;;
6791;SDS011;3433;48.730;9.108;2023-07-28T13:42:28;5.57;;;3.10;;
6791;SDS011;3433;48.730;9.108;2023-07-28T13:45:16;7.67;;;4.13;;
6791;SDS011;3433;48.730;9.108;2023-07-28T13:48:05;5.63;;;3.57;;
6791;SDS011;3433;48.730;9.108;2023-07-28T13:50:52;7.00;;;4.10;;
6791;SDS011;3433;48.730;9.108;2023-07-28T13:53:39;5.67;;;3.80;;
6791;SDS011;3433;48.730;9.108;2023-07-28T13:56:26;4.40;;;3.20;;
6791;SDS011;3433;48.730;9.108;2023-07-28T13:59:14;5.30;;;3.03;;
6791;SDS011;3433;48.730;9.108;2023-07-28T14:02:01;4.00;;;3.60;;
6791;SDS011;3433;48.730;9.108;2023-07-28T14:04:50;6.10;;;3.60;;
6791;SDS011;3433;48.730;9.108;2023-07-28T14:07:37;5.00;;;3.50;;
6791;SDS011;3433;48.730;9.108;2023-07-28T14:10:24;4.07;;;3.23;;
6791;SDS011;3433;48.730;9.108;2023-07-28T14:13:12;5.13;;;3.77;;
6791;SDS011;3433;48.730;9.108;2023-07-28T14:15:59;6.20;;;3.57;;
6791;SDS011;3433;48.730;9.108;2023-07-28T14:18:46;4.03;;;3.30;;
6791;SDS011;3433;48.730;9.108;2023-07-28T14:21:37;5.90;;;4.10;;
6791;SDS011;3433;48.730;9.108;2023-07-28T14:24:24;5.83;;;3.57;;
6791;SDS011;3433;48.730;9.108;2023-07-28T14:27:11;4.80;;;3.53;;
6791;SDS011;3433;48.730;9.108;2023-07-28T14:29:59;4.00;;;3.60;;
6791;SDS011;3433;48.730;9.108;2023-07-28T14:32:46;4.90;;;3.50;;
6791;SDS011;3433;48.730;9.108;2023-07-28T14:35:33;6.20;;;3.63;;
6791;SDS011;3433;48.730;9.108;2023-07-28T14:38:22;4.30;;;3.60;;
6791;SDS011;3433;48.730;9.108;2023-07-28T14:41:09;5.13;;;3.87;;
6791;SDS011;3433;48.730;9.108;2023-07-28T14:43:56;5.80;;;3.70;;
6791;SDS011;3433;48.730;9.108;2023-07-28T14:46:43;5.00;;;4.50;;
6791;SDS011;3433;48.730;9.108;2023-07-28T14:49:32;3.67;;;3.37;;
6791;SDS011;3433;48.730;9.108;2023-07-28T14:52:19;3.60;;;3.30;;
6791;SDS011;3433;48.730;9.108;2023-07-28T14:55:08;4.90;;;3.77;;
6791;SDS011;3433;48.730;9.108;2023-07-28T14:57:55;6.10;;;4.33;;
6791;SDS011;3433;48.730;9.108;2023-07-28T15:00:42;5.30;;;3.97;;
6791;SDS011;3433;48.730;9.108;2023-07-28T15:03:30;5.20;;;4.27;;
6791;SDS011;3433;48.730;9.108;2023-07-28T15:06:17;5.80;;;3.60;;
6791;SDS011;3433;48.730;9.108;2023-07-28T15:09:05;4.07;;;3.50;;
6791;SDS011;3433;48.730;9.108;2023-07-28T15:11:53;6.07;;;3.73;;
6791;SDS011;3433;48.730;9.108;2023-07-28T15:14:41;4.30;;;3.90;;
6791;SDS011;3433;48.730;9.108;2023-07-28T15:17:28;4.80;;;3.33;;
6791;SDS011;3433;48.730;9.108;2023-07-28T15:20:15;6.37;;;3.90;;
6791;SDS011;3433;48.730;9.108;2023-07-28T15:23:05;4.37;;;3.97;;
6791;SDS011;3433;48.730;9.108;2023-07-28T15:25:52;4.80;;;3.50;;
6791;SDS011;3433;48.730;9.108;2023-07-28T15:28:44;5.47;;;4.30;;
6791;SDS011;3433;48.730;9.108;2023-07-28T15:31:31;4.07;;;3.63;;
6791;SDS011;3433;48.730;9.108;2023-07-28T15:34:18;5.87;;;4.20;;
6791;SDS011;3433;48.730;9.108;2023-07-28T15:37:05;4.97;;;3.20;;
6791;SDS011;3433;48.730;9.108;2023-07-28T15:39:53;8.40;;;4.50;;
6791;SDS011;3433;48.730;9.108;2023-07-28T15:42:40;6.43;;;4.07;;
6791;SDS011;3433;48.730;9.108;2023-07-28T15:45:29;4.57;;;4.17;;
6791;SDS011;3433;48.730;9.108;2023-07-28T15:48:17;5.97;;;4.03;;
6791;SDS011;3433;48.730;9.108;2023-07-28T15:51:04;6.00;;;3.77;;
6791;SDS011;3433;48.730;9.108;2023-07-28T15:53:51;4.40;;;4.00;;
6791;SDS011;3433;48.730;9.108;2023-07-28T15:56:39;4.30;;;3.90;;
6791;SDS011;3433;48.730;9.108;2023-07-28T15:59:28;5.67;;;4.37;;
6791;SDS011;3433;48.730;9.108;2023-07-28T16:02:17;5.50;;;4.03;;
6791;SDS011;3433;48.730;9.108;2023-07-28T16:05:05;5.90;;;4.70;;
6791;SDS011;3433;48.730;9.108;2023-07-28T16:07:53;5.53;;;4.53;;
6791;SDS011;3433;48.730;9.108;2023-07-28T16:10:40;8.50;;;4.80;;
6791;SDS011;3433;48.730;9.108;2023-07-28T16:13:27;6.00;;;4.33;;
6791;SDS011;3433;48.730;9.108;2023-07-28T16:16:15;7.80;;;5.00;;
6791;SDS011;3433;48.730;9.108;2023-07-28T16:19:04;4.33;;;3.73;;
6791;SDS011;3433;48.730;9.108;2023-07-28T16:21:51;8.17;;;4.40;;
6791;SDS011;3433;48.730;9.108;2023-07-28T16:24:40;7.30;;;4.70;;
6791;SDS011;3433;48.730;9.108;2023-07-28T16:27:28;5.37;;;4.87;;
6791;SDS011;3433;48.730;9.108;2023-07-28T16:30:15;6.63;;;4.77;;
6791;SDS011;3433;48.730;9.108;2023-07-28T16:33:03;7.07;;;5.03;;
6791;SDS011;3433;48.730;9.108;2023-07-28T16:35:52;9.10;;;4.97;;
6791;SDS011;3433;48.730;9.108;2023-07-28T16:38:39;8.40;;;5.27;;
6791;SDS011;3433;48.730;9.108;2023-07-28T16:41:26;7.70;;;4.93;;
6791;SDS011;3433;48.730;9.108;2023-07-28T16:44:13;6.07;;;5.47;;
6791;SDS011;3433;48.730;9.108;2023-07-28T16:47:01;7.60;;;5.83;;
6791;SDS011;3433;48.730;9.108;2023-07-28T16:49:48;7.03;;;6.20;;
6791;SDS011;3433;48.730;9.108;2023-07-28T16:52:37;8.40;;;5.93;;
6791;SDS011;3433;48.730;9.108;2023-07-28T16:55:24;8.00;;;6.40;;
6791;SDS011;3433;48.730;9.108;2023-07-28T16:58:12;7.80;;;5.03;;
6791;SDS011;3433;48.730;9.108;2023-07-28T17:00:59;6.83;;;6.07;;
6791;SDS011;3433;48.730;9.108;2023-07-28T17:03:46;7.80;;;5.90;;
6791;SDS011;3433;48.730;9.108;2023-07-28T17:06:33;7.40;;;5.70;;
6791;SDS011;3433;48.730;9.108;2023-07-28T17:09:22;6.33;;;5.43;;
6791;SDS011;3433;48.730;9.108;2023-07-28T17:12:10;7.23;;;5.60;;
6791;SDS011;3433;48.730;9.108;2023-07-28T17:14:57;5.97;;;5.23;;
6791;SDS011;3433;48.730;9.108;2023-07-28T17:17:45;6.13;;;5.53;;
6791;SDS011;3433;48.730;9.108;2023-07-28T17:20:32;7.00;;;5.53;;
6791;SDS011;3433;48.730;9.108;2023-07-28T17:23:19;10.73;;;6.00;;
6791;SDS011;3433;48.730;9.108;2023-07-28T17:26:08;7.43;;;5.30;;
6791;SDS011;3433;48.730;9.108;2023-07-28T17:28:55;6.77;;;4.80;;
6791;SDS011;3433;48.730;9.108;2023-07-28T17:31:42;10.47;;;5.23;;